createdAt,value
2018-04-27T00:02:08.757Z,2.60
2018-04-27T00:07:03.181Z,2.40
2018-04-27T00:11:57.643Z,2.00
2018-04-27T00:16:52.069Z,2.50
2018-04-27T00:21:47.422Z,2.30
2018-04-27T00:26:41.871Z,2.47
2018-04-27T00:31:36.284Z,2.80
2018-04-27T00:36:30.838Z,3.27
2018-04-27T00:41:25.560Z,2.60
2018-04-27T00:46:20.142Z,2.93
2018-04-27T00:51:14.597Z,2.80
2018-04-27T00:56:09.000Z,2.60
2018-04-27T01:01:03.432Z,2.63
2018-04-27T01:05:58.634Z,2.90
2018-04-27T01:10:53.054Z,2.93
2018-04-27T01:15:48.311Z,2.80
2018-04-27T01:20:42.729Z,2.83
2018-04-27T01:25:37.225Z,2.83
2018-04-27T01:30:31.686Z,2.87
2018-04-27T01:35:26.863Z,2.60
2018-04-27T01:40:21.678Z,2.93
2018-04-27T01:45:16.080Z,2.80
2018-04-27T01:50:11.617Z,2.80
2018-04-27T01:55:06.140Z,2.60
2018-04-27T02:00:01.763Z,2.40
2018-04-27T02:04:56.744Z,2.40
2018-04-27T02:09:51.177Z,2.50
2018-04-27T02:14:45.548Z,2.83
2018-04-27T02:19:39.903Z,2.70
2018-04-27T02:24:34.296Z,2.50
2018-04-27T02:29:28.875Z,2.87
2018-04-27T02:34:23.220Z,3.07
2018-04-27T02:39:17.582Z,3.23
2018-04-27T02:44:11.960Z,2.97
2018-04-27T02:49:07.105Z,2.60
2018-04-27T02:54:01.514Z,2.53
2018-04-27T02:58:55.960Z,2.30
2018-04-27T03:03:51.103Z,2.40
2018-04-27T03:08:45.468Z,2.53
2018-04-27T03:13:39.836Z,2.30
2018-04-27T03:18:33.984Z,2.83
2018-04-27T03:23:28.369Z,2.87
2018-04-27T03:28:22.985Z,3.13
2018-04-27T03:33:17.726Z,2.53
2018-04-27T03:38:12.843Z,3.07
2018-04-27T03:43:08.147Z,3.13
2018-04-27T03:48:02.720Z,3.13
2018-04-27T03:52:57.070Z,2.90
2018-04-27T03:57:52.184Z,3.30
2018-04-27T04:03:03.686Z,3.03
2018-04-27T04:07:58.843Z,3.70
2018-04-27T04:12:53.231Z,3.47
2018-04-27T04:17:48.370Z,3.10
2018-04-27T04:22:42.793Z,3.37
2018-04-27T04:27:37.197Z,3.30
2018-04-27T04:32:32.025Z,3.37
2018-04-27T04:37:27.002Z,3.70
2018-04-27T04:42:22.430Z,3.67
2018-04-27T04:47:16.865Z,3.33
2018-04-27T04:52:11.051Z,3.80
2018-04-27T04:57:05.510Z,3.80
2018-04-27T05:02:00.677Z,3.67
2018-04-27T05:06:55.019Z,3.40
2018-04-27T05:11:49.384Z,3.43
2018-04-27T05:16:43.725Z,4.03
2018-04-27T05:21:39.595Z,3.20
2018-04-27T05:26:34.118Z,3.70
2018-04-27T05:31:28.231Z,3.40
2018-04-27T05:36:22.583Z,3.03
2018-04-27T05:41:18.873Z,3.10
2018-04-27T05:46:13.000Z,3.20
2018-04-27T05:51:06.688Z,3.23
2018-04-27T05:56:00.990Z,2.73
2018-04-27T06:00:55.365Z,3.40
2018-04-27T06:05:50.050Z,3.00
2018-04-27T06:10:44.419Z,3.23
2018-04-27T06:15:39.851Z,3.23
2018-04-27T06:20:35.180Z,2.90
2018-04-27T06:25:30.527Z,2.63
2018-04-27T06:30:25.114Z,2.67
2018-04-27T06:35:20.222Z,2.87
2018-04-27T06:40:14.585Z,3.30
2018-04-27T06:45:09.218Z,3.10
2018-04-27T06:50:03.659Z,2.80
2018-04-27T06:54:58.809Z,2.97
2018-04-27T06:59:53.202Z,3.00
2018-04-27T07:04:47.557Z,3.00
2018-04-27T07:09:42.650Z,2.90
2018-04-27T07:14:37.036Z,2.60
2018-04-27T07:19:31.466Z,2.30
2018-04-27T07:24:25.903Z,2.80
2018-04-27T07:29:21.269Z,2.97
2018-04-27T07:34:15.739Z,2.80
2018-04-27T07:39:10.472Z,2.83
2018-04-27T07:44:04.867Z,3.03
2018-04-27T07:48:59.297Z,2.60
2018-04-27T07:53:53.672Z,2.67
2018-04-27T07:58:48.027Z,2.93
2018-04-27T08:03:42.597Z,2.47
2018-04-27T08:08:36.960Z,2.63
2018-04-27T08:13:32.111Z,2.60
2018-04-27T08:18:26.397Z,2.30
2018-04-27T08:23:21.530Z,2.27
2018-04-27T08:28:15.940Z,2.30
2018-04-27T08:33:10.438Z,2.50
2018-04-27T08:38:05.019Z,2.23
2018-04-27T08:43:00.171Z,2.80
2018-04-27T08:47:54.525Z,2.50
2018-04-27T08:52:49.233Z,2.40
2018-04-27T08:57:43.370Z,2.23
2018-04-27T09:02:37.817Z,2.30
2018-04-27T09:07:33.497Z,2.30
2018-04-27T09:12:30.012Z,2.77
2018-04-27T09:17:24.597Z,2.17
2018-04-27T09:22:19.871Z,2.33
2018-04-27T09:27:15.141Z,2.00
2018-04-27T09:32:10.594Z,2.10
2018-04-27T09:37:05.056Z,1.80
2018-04-27T09:41:59.812Z,1.63
2018-04-27T09:46:54.151Z,1.70
2018-04-27T09:51:49.308Z,1.80
2018-04-27T09:56:43.999Z,1.57
2018-04-27T10:01:38.480Z,1.70
2018-04-27T10:06:33.846Z,1.70
2018-04-27T10:11:28.463Z,1.43
2018-04-27T10:16:22.964Z,1.50
2018-04-27T10:21:17.325Z,2.23
2018-04-27T10:26:11.956Z,1.70
2018-04-27T10:31:06.682Z,1.80
2018-04-27T10:36:01.070Z,1.70
2018-04-27T10:40:56.450Z,2.20
2018-04-27T10:45:50.810Z,2.20
2018-04-27T10:50:45.295Z,1.53
2018-04-27T10:55:40.361Z,1.83
2018-04-27T11:00:36.377Z,1.60
2018-04-27T11:05:30.237Z,1.73
2018-04-27T11:10:24.653Z,1.90
2018-04-27T11:15:19.970Z,1.50
2018-04-27T11:20:14.463Z,1.70
2018-04-27T11:25:09.713Z,2.20
2018-04-27T11:30:04.301Z,1.53
2018-04-27T11:34:59.520Z,1.73
2018-04-27T11:39:54.701Z,2.00
2018-04-27T11:44:49.644Z,1.83
2018-04-27T11:49:44.917Z,2.10
2018-04-27T11:54:39.282Z,1.90
2018-04-27T11:59:33.789Z,1.93
2018-04-27T12:04:28.717Z,1.90
2018-04-27T12:09:23.151Z,2.00
2018-04-27T12:14:17.592Z,1.90
2018-04-27T12:19:12.056Z,2.00
2018-04-27T12:24:06.664Z,1.83
2018-04-27T12:29:01.618Z,2.20
2018-04-27T12:33:56.357Z,1.80
2018-04-27T12:38:51.598Z,2.23
2018-04-27T12:43:46.170Z,2.00
2018-04-27T12:48:41.196Z,2.23
2018-04-27T12:53:36.312Z,1.73
2018-04-27T12:58:31.613Z,2.10
2018-04-27T13:03:26.085Z,1.97
2018-04-27T13:08:20.210Z,2.00
2018-04-27T13:13:14.589Z,2.27
2018-04-27T13:18:08.937Z,2.00
2018-04-27T13:23:03.482Z,1.70
2018-04-27T13:27:57.850Z,1.67
2018-04-27T13:32:53.131Z,1.93
2018-04-27T13:37:47.633Z,1.90
2018-04-27T13:42:42.014Z,2.13
2018-04-27T13:47:36.571Z,2.20
2018-04-27T13:52:31.065Z,1.70
2018-04-27T13:57:25.448Z,2.10
2018-04-27T14:02:20.178Z,1.90
2018-04-27T14:07:13.959Z,1.70
2018-04-27T14:12:08.371Z,2.00
2018-04-27T14:17:02.819Z,1.50
2018-04-27T14:21:57.186Z,2.27
2018-04-27T14:26:51.612Z,2.20
2018-04-27T14:31:46.981Z,2.17
2018-04-27T14:36:41.353Z,2.13
2018-04-27T14:41:35.957Z,2.50
2018-04-27T14:46:30.585Z,2.60
2018-04-27T14:51:25.456Z,2.60
2018-04-27T14:56:20.997Z,2.07
2018-04-27T15:01:16.263Z,2.47
2018-04-27T15:06:12.835Z,2.33
2018-04-27T15:11:07.054Z,2.30
2018-04-27T15:16:01.548Z,2.23
2018-04-27T15:20:55.910Z,2.57
2018-04-27T15:25:50.258Z,2.47
2018-04-27T15:30:44.631Z,2.40
2018-04-27T15:35:38.777Z,2.57
2018-04-27T15:40:33.304Z,2.33
2018-04-27T15:45:28.437Z,2.87
2018-04-27T15:50:22.776Z,2.40
2018-04-27T15:55:17.211Z,2.50
2018-04-27T16:00:12.330Z,2.53
2018-04-27T16:05:06.841Z,2.50
2018-04-27T16:10:02.216Z,2.13
2018-04-27T16:14:56.796Z,2.80
2018-04-27T16:19:53.643Z,2.33
2018-04-27T16:24:48.779Z,2.50
2018-04-27T16:29:43.136Z,2.77
2018-04-27T16:34:37.491Z,2.97
2018-04-27T16:39:31.844Z,3.10
2018-04-27T16:44:26.201Z,2.93
2018-04-27T16:49:20.574Z,3.60
2018-04-27T16:54:15.701Z,3.00
2018-04-27T16:59:10.820Z,2.40
2018-04-27T17:04:05.986Z,4.13
2018-04-27T17:09:00.474Z,2.77
2018-04-27T17:13:55.009Z,2.93
2018-04-27T17:18:49.516Z,2.40
2018-04-27T17:23:43.893Z,2.43
2018-04-27T17:28:38.515Z,2.07
2018-04-27T17:33:33.012Z,2.80
2018-04-27T17:38:27.361Z,3.17
2018-04-27T17:43:21.760Z,2.00
2018-04-27T17:48:16.298Z,2.17
2018-04-27T17:53:10.674Z,2.17
2018-04-27T17:58:05.779Z,1.93
2018-04-27T18:03:00.380Z,2.10
2018-04-27T18:07:54.759Z,1.97
2018-04-27T18:12:49.129Z,2.20
2018-04-27T18:17:44.262Z,2.30
2018-04-27T18:22:38.846Z,2.33
2018-04-27T18:27:34.118Z,4.33
2018-04-27T18:32:28.507Z,3.03
2018-04-27T18:37:22.924Z,3.10
2018-04-27T18:42:17.269Z,2.70
2018-04-27T18:47:12.421Z,2.80
2018-04-27T18:52:06.571Z,2.70
2018-04-27T18:57:00.723Z,2.70
2018-04-27T19:01:54.823Z,2.60
2018-04-27T19:06:49.234Z,2.10
2018-04-27T19:11:42.861Z,2.23
2018-04-27T19:16:36.708Z,2.73
2018-04-27T19:21:31.104Z,3.37
2018-04-27T19:26:25.773Z,2.53
2018-04-27T19:31:20.411Z,3.57
2018-04-27T19:36:14.532Z,4.00
2018-04-27T19:41:08.909Z,2.97
2018-04-27T19:46:03.332Z,3.00
2018-04-27T19:50:57.816Z,2.80
2018-04-27T19:55:52.195Z,3.03
2018-04-27T20:00:46.845Z,3.13
2018-04-27T20:05:48.867Z,3.50
2018-04-27T20:10:44.889Z,3.40
2018-04-27T20:15:44.172Z,3.37
2018-04-27T20:20:37.784Z,2.97
2018-04-27T20:25:35.471Z,2.13
2018-04-27T20:30:29.674Z,1.97
2018-04-27T20:35:23.103Z,2.20
2018-04-27T20:40:16.762Z,2.73
2018-04-27T20:45:13.687Z,2.70
2018-04-27T20:50:07.422Z,3.27
2018-04-27T20:55:01.222Z,3.17
2018-04-27T20:59:56.312Z,2.70
2018-04-27T21:04:50.823Z,3.20
2018-04-27T21:09:45.168Z,3.10
2018-04-27T21:14:39.540Z,2.80
2018-04-27T21:19:34.652Z,2.57
2018-04-27T21:24:28.281Z,2.50
2018-04-27T21:29:22.706Z,2.73
2018-04-27T21:34:17.047Z,2.87
2018-04-27T21:39:15.368Z,3.10
2018-04-27T21:44:15.937Z,3.80
2018-04-27T21:49:25.568Z,3.03
2018-04-27T21:54:21.831Z,3.47
2018-04-27T21:59:22.062Z,3.30
2018-04-27T22:04:16.239Z,3.07
2018-04-27T22:09:10.623Z,2.63
2018-04-27T22:14:05.145Z,3.13
2018-04-27T22:18:58.556Z,3.23
2018-04-27T22:24:05.325Z,2.70
2018-04-27T22:29:00.767Z,2.67
2018-04-27T22:33:56.823Z,2.53
2018-04-27T22:54:53.470Z,2.70
2018-04-27T22:59:51.208Z,2.93
2018-04-27T23:04:45.010Z,2.07
2018-04-27T23:09:39.201Z,2.60
2018-04-27T23:14:35.504Z,2.50
2018-04-27T23:19:37.305Z,2.30
2018-04-27T23:24:32.528Z,2.10
2018-04-27T23:29:26.483Z,2.10
2018-04-27T23:34:36.249Z,2.40
2018-04-27T23:39:31.435Z,2.20
2018-04-27T23:44:25.319Z,2.10
2018-04-27T23:49:21.244Z,2.03
2018-04-27T23:54:15.243Z,2.03
2018-04-27T23:59:09.582Z,2.33
